Impacts TAF Board
For situational awareness. Not to be used for flight planning purposes.
IDs:

KLGA - New York/La Guardia, NY, US

Issued at 2320 UTC 23 May 2019
Updated at 0057 UTC 24 May 2019
Potential Impact None Slight Moderate High
Time0051Z 24/01Z 24/02Z 24/03Z 24/04Z 24/05Z 24/06Z 24/07Z 24/08Z 24/09Z 24/10Z 24/11Z 24/12Z 24/13Z>>
Type OBS PRVL PRVL
  [TEMP]  
PRVL
  [TEMP]  
PRVL PRVL PRVL PRVL PRVL PRVL PRVL PRVL PRVL PRVL
VIS 10 >6 >6
  [5]  
>6
  [5]  
>6 >6 >6 >6 >6 >6 >6 >6 >6 >6
CIG 250 120 120
  [35]  
120
  [35]  
100 100 -- -- -- -- -- -- -- --
Cover BKN BKN BKN
  [BKN]  
BKN
  [BKN]  
BKN BKN SCT SCT SCT SCT SCT SCT SCT SCT
FltCat VFR VFR VFR
  [MVFR]  
VFR
  [MVFR]  
VFR VFR VFR VFR VFR VFR VFR VFR VFR VFR
WX -- -- --
  [-SHRA]  
--
  [-SHRA]  
-- -- -- -- -- -- -- -- -- --
WDir 190 190 190
[190]
190
[190]
240 240 280 280 280 280 280 280 280 280
WSpd 7 11 11
  [11]  
11
  [11]  
10 10 13 13 13 13 13 13 13 13
WGst -- -- --
  [--]  
--
  [--]  
-- -- 23 23 23 23 23 23 23 23
Raw TAF
KLGA 232320Z 2400/2506 19011KT P6SM FEW040 BKN120
  TEMPO 2402/2404 5SM -SHRA BKN035
  FM240400 24010KT P6SM SCT050 BKN100
  FM240600 28013G23KT P6SM SCT040 SCT250
  FM241400 30019G30KT P6SM FEW040 SCT250
  FM242000 32016G27KT P6SM FEW250
  FM250000 34014G21KT P6SM FEW250
  FM250400 01008KT P6SM FEW250


Raw METAR
KLGA 240051Z 19007KT 10SM FEW040 SCT130 BKN250 19/16 A2986 RMK AO2 SLP112 T01890161 $
KLGA 232351Z COR 17009KT 10SM FEW040 SCT110 BKN250 19/16 A2989 RMK AO2 SLP120 60012 T01940156 10239 20194 56031 $
KLGA 232251Z 18010G15KT 10SM FEW040 BKN130 BKN250 21/16 A2991 RMK AO2 SLP126 T02060156 $
KLGA 232151Z 19009KT 10SM FEW014 SCT090 BKN140 OVC250 21/17 A2992 RMK AO2 SLP133 T02110167 $

METAR Board
Radar Display
Forecast Discussion
For situational awareness. Not to be used for flight planning purposes.